Time;durP1;ratioP1;P1;durP2;ratioP2;P2;SDS_P1;SDS_P2;PMS_P1;PMS_P2;Temp;Humidity;BMP_temperature;BMP_pressure;BME280_temperature;BME280_humidity;BME280_pressure;Samples;Min_cycle;Max_cycle;Signal;HPM_P1;HPM_P2
2021/10/26 00:00:15;;;;;;;;;8.00;6.00;;;;;11.64;75.78;100916.72;5038145;28;45241;-82
2021/10/26 00:02:41;;;;;;;;;10.00;6.25;;;;;11.58;76.26;100915.22;5037865;28;45234;-81
2021/10/26 00:05:07;;;;;;;;;5.25;5.25;;;;;11.60;75.95;100929.34;5037954;28;45232;-81
2021/10/26 00:07:32;;;;;;;;;4.75;3.00;;;;;11.59;76.16;100930.28;5037920;28;45250;-82
2021/10/26 00:09:58;;;;;;;;;6.50;6.00;;;;;11.57;75.98;100930.38;5038038;28;45291;-81
2021/10/26 00:12:23;;;;;;;;;5.00;4.00;;;;;11.54;75.87;100932.31;5037765;28;45188;-82
2021/10/26 00:14:49;;;;;;;;;8.25;4.00;;;;;11.53;75.65;100934.13;5037826;28;45298;-82
2021/10/26 00:17:15;;;;;;;;;5.50;4.00;;;;;11.53;75.80;100941.28;5037774;28;45064;-82
2021/10/26 00:19:40;;;;;;;;;3.25;3.25;;;;;11.51;75.96;100936.00;5037788;28;45215;-82
2021/10/26 00:22:06;;;;;;;;;4.00;4.00;;;;;11.51;76.06;100943.13;5037686;28;45303;-82
2021/10/26 00:24:32;;;;;;;;;7.00;4.25;;;;;11.49;75.50;100943.22;5037596;28;46241;-82
2021/10/26 00:26:57;;;;;;;;;4.50;4.00;;;;;11.46;75.78;100947.84;5037886;28;45526;-82
2021/10/26 00:29:22;;;;;;;;;4.00;2.75;;;;;11.38;75.64;100934.94;5036971;28;45185;-82
2021/10/26 00:31:48;;;;;;;;;6.00;3.50;;;;;11.42;75.95;100946.31;5037476;28;45153;-82
2021/10/26 00:34:13;;;;;;;;;4.50;4.50;;;;;11.34;75.69;100939.56;5037211;28;45979;-82
2021/10/26 00:36:39;;;;;;;;;2.50;2.50;;;;;11.34;75.92;100939.56;5037529;28;45345;-82
2021/10/26 00:39:05;;;;;;;;;3.50;3.50;;;;;11.33;75.97;100937.84;5036973;28;45437;-82
2021/10/26 00:41:30;;;;;;;;;4.00;3.25;;;;;11.26;76.08;100928.47;5037177;28;45297;-81
2021/10/26 00:43:56;;;;;;;;;2.75;2.00;;;;;11.22;76.25;100933.06;5018614;28;47259;-82
2021/10/26 00:46:33;;;;;;;;;2.75;2.25;;;;;11.25;76.34;100941.84;5036916;28;45318;-82
2021/10/26 00:49:00;;;;;;;;;6.75;3.00;;;;;11.18;75.97;100939.50;5036945;28;45219;-82
2021/10/26 00:51:27;;;;;;;;;3.00;3.00;;;;;11.14;76.22;100947.72;5019029;28;45224;-82
2021/10/26 00:53:52;;;;;;;;;4.00;2.00;;;;;11.14;76.38;100956.56;5036140;28;45203;-81
2021/10/26 00:56:19;;;;;;;;;4.00;2.50;;;;;11.12;76.58;100958.44;5037017;28;45167;-81
2021/10/26 00:58:45;;;;;;;;;2.75;2.75;;;;;11.07;76.62;100960.47;5036443;28;45199;-82
2021/10/26 01:01:10;;;;;;;;;2.50;2.50;;;;;10.95;76.62;100939.81;5036583;28;45346;-82
2021/10/26 01:03:35;;;;;;;;;3.00;1.75;;;;;11.00;76.52;100956.41;5036140;28;45248;-81
2021/10/26 01:06:01;;;;;;;;;3.00;1.75;;;;;10.98;76.59;100959.13;5035289;28;45335;-82
2021/10/26 01:08:27;;;;;;;;;1.00;1.00;;;;;10.97;76.54;100961.88;5036752;28;45229;-81
2021/10/26 01:10:52;;;;;;;;;2.75;2.00;;;;;10.94;76.51;100954.91;5036575;28;45198;-82
2021/10/26 01:13:22;;;;;;;;;2.00;1.25;;;;;10.92;76.48;100961.28;5036289;28;46020;-82
2021/10/26 01:15:47;;;;;;;;;1.50;1.00;;;;;10.85;76.39;100958.06;5036615;28;45480;-81
2021/10/26 01:18:14;;;;;;;;;2.00;1.00;;;;;10.88;76.67;100966.72;5036633;28;45521;-81
2021/10/26 01:20:39;;;;;;;;;2.00;2.00;;;;;10.85;76.68;100961.56;5036553;28;45331;-81
2021/10/26 01:23:05;;;;;;;;;1.75;1.75;;;;;10.81;76.53;100965.31;5036369;28;45811;-82
2021/10/26 01:25:30;;;;;;;;;2.25;1.00;;;;;10.87;76.86;100973.00;5036475;28;45276;-81
2021/10/26 01:27:56;;;;;;;;;1.00;1.00;;;;;10.79;76.37;100969.84;5036570;28;45183;-81
2021/10/26 01:30:27;;;;;;;;;2.00;1.00;;;;;10.83;76.50;100966.09;5036273;28;45242;-82
2021/10/26 01:32:53;;;;;;;;;2.25;1.00;;;;;10.82;76.48;100974.16;5035926;28;45922;-81
2021/10/26 01:35:18;;;;;;;;;1.00;1.00;;;;;10.76;76.34;100969.13;5036472;28;45060;-81
2021/10/26 01:37:43;;;;;;;;;2.00;2.00;;;;;10.79;76.62;100969.84;5036435;28;45220;-81
2021/10/26 01:40:09;;;;;;;;;0.75;0.75;;;;;10.74;76.50;100960.38;5035934;28;45196;-82
2021/10/26 01:42:35;;;;;;;;;0.00;0.00;;;;;10.76;76.26;100975.34;5036033;28;45941;-81
2021/10/26 01:45:01;;;;;;;;;1.50;0.50;;;;;10.73;76.51;100967.50;5036272;28;45239;-80
2021/10/26 01:47:26;;;;;;;;;1.25;1.25;;;;;10.63;76.29;100953.81;5034748;28;45141;-80
2021/10/26 01:49:52;;;;;;;;;1.25;0.50;;;;;10.67;76.19;100966.00;5035876;28;45273;-81
2021/10/26 01:52:17;;;;;;;;;2.00;1.00;;;;;10.72;76.44;100971.09;5035942;28;45385;-80
2021/10/26 01:54:43;;;;;;;;;2.00;1.00;;;;;10.62;76.46;100952.06;5035847;28;45247;-80
2021/10/26 01:57:08;;;;;;;;;2.00;2.00;;;;;10.62;76.51;100953.88;5036040;28;45333;-81
2021/10/26 01:59:34;;;;;;;;;0.25;0.25;;;;;10.63;76.74;100967.09;5036075;28;45159;-81
2021/10/26 02:02:00;;;;;;;;;1.25;1.00;;;;;10.62;76.78;100973.34;5035738;28;45251;-81
2021/10/26 02:04:26;;;;;;;;;1.00;1.00;;;;;10.62;76.66;100960.03;5035235;28;45112;-81
2021/10/26 02:06:52;;;;;;;;;1.00;1.00;;;;;10.62;76.95;100962.72;5034526;28;45301;-81
2021/10/26 02:09:17;;;;;;;;;1.00;1.00;;;;;10.60;77.01;100967.22;5035790;28;45116;-81
2021/10/26 02:11:43;;;;;;;;;2.25;2.00;;;;;10.54;76.58;100954.22;5035603;28;46214;-81
2021/10/26 02:14:08;;;;;;;;;1.75;1.00;;;;;10.52;77.19;100959.63;5035873;28;45203;-81
2021/10/26 02:16:35;;;;;;;;;1.00;1.00;;;;;10.50;76.62;100948.22;5035793;28;45600;-81
2021/10/26 02:19:00;;;;;;;;;1.00;0.75;;;;;10.49;76.66;100945.63;5035841;28;45255;-81
2021/10/26 02:21:25;;;;;;;;;3.00;1.00;;;;;10.54;76.96;100962.22;5017236;28;48462;-81
2021/10/26 02:23:51;;;;;;;;;3.00;1.00;;;;;10.56;77.14;100956.81;5017212;28;45224;-81
2021/10/26 02:26:16;;;;;;;;;2.00;2.00;;;;;10.56;76.66;100963.00;5035823;28;45252;-81
2021/10/26 02:28:43;;;;;;;;;1.00;1.00;;;;;10.57;76.92;100966.53;5017620;28;45323;-81
2021/10/26 02:31:09;;;;;;;;;1.25;1.00;;;;;10.57;77.06;100961.22;5035516;28;46183;-81
2021/10/26 02:33:35;;;;;;;;;1.00;1.00;;;;;10.56;76.74;100965.66;5035051;28;45231;-81
2021/10/26 02:36:00;;;;;;;;;0.75;0.75;;;;;10.52;76.66;100958.78;5035770;28;45207;-81
2021/10/26 02:38:25;;;;;;;;;2.00;1.75;;;;;10.56;77.07;100965.66;5035528;28;45219;-81
2021/10/26 02:40:51;;;;;;;;;1.00;1.00;;;;;10.56;76.94;100960.34;5033405;28;48065;-81
2021/10/26 02:43:18;;;;;;;;;1.00;1.00;;;;;10.51;76.75;100954.38;5033544;28;45179;-81
2021/10/26 02:45:43;;;;;;;;;3.00;1.00;;;;;10.48;76.90;100954.53;5034984;28;45153;-81
2021/10/26 02:48:08;;;;;;;;;1.50;1.00;;;;;10.51;76.91;100957.03;5035509;28;45265;-81
2021/10/26 02:50:34;;;;;;;;;1.00;0.00;;;;;10.48;76.82;100960.72;5035089;28;46080;-81
2021/10/26 02:52:59;;;;;;;;;1.25;1.25;;;;;10.43;77.03;100957.44;5037377;28;45196;-81
2021/10/26 02:55:25;;;;;;;;;1.00;1.00;;;;;10.41;76.99;100956.63;5038833;28;45326;-81
2021/10/26 02:57:50;;;;;;;;;0.50;0.00;;;;;10.45;77.12;100970.66;5038836;28;45277;-81
2021/10/26 03:00:16;;;;;;;;;2.00;1.00;;;;;10.43;77.42;100973.38;5038442;28;45425;-81
2021/10/26 03:02:41;;;;;;;;;2.00;1.00;;;;;10.41;77.54;100969.06;5013456;28;45282;-81
2021/10/26 03:05:07;;;;;;;;;1.00;1.00;;;;;10.42;77.41;100982.28;4998893;28;45176;-81
2021/10/26 03:07:43;;;;;;;;;2.75;1.00;;;;;10.41;77.48;100975.25;4998981;28;45208;-81
2021/10/26 03:10:10;;;;;;;;;1.00;1.00;;;;;10.39;77.13;100969.16;4998521;28;46754;-81
2021/10/26 03:12:36;;;;;;;;;1.50;1.00;;;;;10.41;77.50;100975.25;4997037;28;45534;-81
2021/10/26 03:15:10;;;;;;;;;0.75;0.75;;;;;10.40;77.14;100975.31;4998888;28;45164;-81
2021/10/26 03:17:36;;;;;;;;;2.75;1.00;;;;;10.38;77.67;100964.75;5014009;28;45216;-81
2021/10/26 03:20:04;;;;;;;;;0.75;0.75;;;;;10.43;77.36;100978.69;4998451;28;45604;-81
2021/10/26 03:22:29;;;;;;;;;1.00;1.00;;;;;10.41;77.19;100975.25;4998703;28;45268;-81
2021/10/26 03:24:55;;;;;;;;;2.00;2.00;;;;;10.44;77.23;100983.06;4998579;28;45271;-81
2021/10/26 03:27:21;;;;;;;;;2.00;1.00;;;;;10.43;77.59;100973.38;4998571;28;45212;-81
2021/10/26 03:29:46;;;;;;;;;3.00;1.50;;;;;10.43;77.55;100973.38;4996767;28;46796;-81
2021/10/26 03:32:12;;;;;;;;;1.50;1.00;;;;;10.44;77.63;100971.56;4998312;28;45235;-81
2021/10/26 03:34:37;;;;;;;;;1.75;1.00;;;;;10.44;77.63;100968.91;4998584;28;45256;-81
2021/10/26 03:37:04;;;;;;;;;2.75;1.00;;;;;10.45;77.62;100970.66;4998452;28;45250;-81
2021/10/26 03:39:33;;;;;;;;;2.00;2.00;;;;;10.50;77.14;100985.44;4998044;28;45591;-81
2021/10/26 03:41:59;;;;;;;;;2.00;0.25;;;;;10.49;77.40;100989.03;4998210;28;45200;-81
2021/10/26 03:44:24;;;;;;;;;2.00;0.75;;;;;10.49;77.35;100991.69;4998397;28;45263;-81
2021/10/26 03:46:50;;;;;;;;;2.00;0.25;;;;;10.46;77.48;100978.53;4998466;28;45196;-81
2021/10/26 03:49:15;;;;;;;;;0.75;0.75;;;;;10.49;77.61;100991.69;4997929;28;45633;-81
2021/10/26 03:51:40;;;;;;;;;2.50;1.00;;;;;10.43;77.33;100978.69;4997935;28;45478;-81
2021/10/26 03:54:05;;;;;;;;;1.25;0.75;;;;;10.49;77.41;100986.38;4996501;28;45228;-81
2021/10/26 03:56:31;;;;;;;;;0.25;0.25;;;;;10.51;77.18;100992.47;4998338;28;45265;-81
2021/10/26 03:58:57;;;;;;;;;2.00;0.00;;;;;10.42;77.52;100973.44;4997770;28;46006;-81
2021/10/26 04:01:23;;;;;;;;;1.00;1.00;;;;;10.52;77.12;100993.34;4997709;28;45238;-81
2021/10/26 04:03:49;;;;;;;;;1.00;1.00;;;;;10.50;77.53;100990.75;5022118;28;45218;-81
2021/10/26 04:06:17;;;;;;;;;4.00;2.00;;;;;10.55;77.17;101001.16;5037917;28;45190;-81
2021/10/26 04:11:19;;;;;;;;;1.50;1.00;;;;;10.46;77.45;100986.53;5037473;28;45298;-81
2021/10/26 04:13:44;;;;;;;;;1.00;1.00;;;;;10.45;77.47;100989.25;5037542;28;45243;-81
2021/10/26 04:16:10;;;;;;;;;1.00;1.00;;;;;10.49;77.06;100993.50;5037800;28;45263;-81
2021/10/26 04:18:36;;;;;;;;;2.00;2.00;;;;;10.51;77.38;100994.28;5035993;28;47056;-80
2021/10/26 04:21:02;;;;;;;;;1.00;1.00;;;;;10.46;77.28;100988.28;5037170;28;45234;-81
2021/10/26 04:23:28;;;;;;;;;1.25;1.25;;;;;10.41;77.33;100977.03;5037369;28;45273;-81
2021/10/26 04:25:54;;;;;;;;;2.00;2.00;;;;;10.43;77.36;100989.34;5037479;28;45247;-81
2021/10/26 04:28:20;;;;;;;;;4.00;2.75;;;;;10.45;77.28;101002.56;5037108;28;46175;-81
2021/10/26 04:30:46;;;;;;;;;2.50;2.50;;;;;10.42;77.06;101000.00;5037133;28;45187;-81
2021/10/26 04:33:13;;;;;;;;;1.75;1.50;;;;;10.38;77.15;100990.50;5037001;28;45210;-81
2021/10/26 04:35:38;;;;;;;;;2.25;2.25;;;;;10.41;77.25;100998.31;5037042;28;45374;-81
2021/10/26 04:38:04;;;;;;;;;3.00;3.00;;;;;10.36;77.36;100999.38;5037045;28;45416;-81
2021/10/26 04:40:31;;;;;;;;;3.75;3.75;;;;;10.39;77.29;101008.13;5036852;28;45258;-81
2021/10/26 04:42:57;;;;;;;;;4.75;4.00;;;;;10.39;76.94;101008.13;5036881;28;45224;-85
2021/10/26 04:45:23;;;;;;;;;2.00;2.00;;;;;10.33;76.91;101001.28;5037064;28;45133;-84
2021/10/26 04:47:48;;;;;;;;;3.75;2.75;;;;;10.22;77.31;100983.19;5018729;28;47522;-81
2021/10/26 04:50:14;;;;;;;;;3.50;3.50;;;;;10.27;76.94;100996.25;5035386;28;45152;-81
2021/10/26 04:52:39;;;;;;;;;2.75;2.75;;;;;10.35;77.18;101018.06;5037260;28;45643;-81
2021/10/26 04:55:05;;;;;;;;;7.25;4.00;;;;;10.34;77.29;101021.66;5037073;28;45191;-81
2021/10/26 04:57:31;;;;;;;;;5.25;3.25;;;;;10.29;77.00;101018.31;5036846;28;45345;-81
2021/10/26 04:59:56;;;;;;;;;4.00;3.75;;;;;10.28;77.20;101021.91;5036716;28;45210;-81
2021/10/26 05:02:22;;;;;;;;;3.50;3.50;;;;;10.25;76.93;101020.25;5036683;28;45160;-81
2021/10/26 05:04:48;;;;;;;;;5.00;3.00;;;;;10.26;77.12;101023.75;5036909;28;45206;-81
2021/10/26 05:07:14;;;;;;;;;6.25;4.00;;;;;10.18;77.37;101013.50;5018589;28;47211;-81
2021/10/26 05:09:40;;;;;;;;;4.75;4.75;;;;;10.17;77.09;101011.78;5037031;28;45663;-81
2021/10/26 05:12:05;;;;;;;;;4.75;4.00;;;;;10.17;76.90;101019.75;5036750;28;45230;-81
2021/10/26 05:14:31;;;;;;;;;5.50;3.25;;;;;10.21;77.30;101018.66;5036365;28;45401;-81
2021/10/26 05:16:57;;;;;;;;;6.75;4.00;;;;;10.19;77.36;101017.91;5036702;28;45227;-81
2021/10/26 05:19:24;;;;;;;;;4.00;4.00;;;;;10.13;77.34;101023.47;5036766;28;45274;-81
2021/10/26 05:21:49;;;;;;;;;4.00;4.00;;;;;10.05;77.33;101023.84;5036600;28;45186;-81
2021/10/26 05:24:15;;;;;;;;;5.75;3.75;;;;;10.08;77.27;101031.66;5018560;28;45078;-81
2021/10/26 05:26:40;;;;;;;;;5.00;5.00;;;;;10.06;77.52;101036.19;5036557;28;45849;-81
2021/10/26 05:29:09;;;;;;;;;6.00;4.50;;;;;9.98;77.41;101022.41;5036685;28;45136;-81
2021/10/26 05:31:35;;;;;;;;;5.00;4.00;;;;;9.95;77.55;101034.00;5036336;28;45191;-81
2021/10/26 05:34:00;;;;;;;;;5.50;5.50;;;;;9.95;77.28;101038.47;5036495;28;45251;-81
2021/10/26 05:36:25;;;;;;;;;5.50;5.50;;;;;9.78;77.15;101020.63;5036068;28;46554;-81
2021/10/26 05:38:51;;;;;;;;;6.25;4.25;;;;;9.83;77.55;101046.06;5036244;28;45238;-81
2021/10/26 05:41:17;;;;;;;;;5.25;4.00;;;;;9.78;77.39;101044.53;5036378;28;45302;-81
2021/10/26 05:43:42;;;;;;;;;4.50;4.00;;;;;9.73;77.19;101050.03;5036275;28;45298;-81
2021/10/26 05:46:08;;;;;;;;;4.25;4.25;;;;;9.69;77.28;101040.50;5036467;28;46329;-81
2021/10/26 05:48:34;;;;;;;;;7.00;5.50;;;;;9.65;77.18;101036.25;5035998;28;45097;-80
2021/10/26 05:51:04;;;;;;;;;5.00;5.00;;;;;9.49;77.12;101042.22;5036091;28;45203;-81
2021/10/26 05:53:31;;;;;;;;;10.50;5.75;;;;;9.50;77.92;101051.91;5036134;28;45201;-80
2021/10/26 05:55:56;;;;;;;;;5.50;4.50;;;;;9.42;77.41;101062.00;5035826;28;46103;-81
2021/10/26 05:58:22;;;;;;;;;5.25;5.25;;;;;9.40;77.48;101071.78;5036052;28;45239;-81
2021/10/26 06:00:48;;;;;;;;;6.00;5.75;;;;;9.36;77.87;101074.66;5034579;28;45246;-81
2021/10/26 06:03:13;;;;;;;;;8.50;6.00;;;;;9.30;77.54;101075.75;5034357;28;45262;-81
2021/10/26 06:05:38;;;;;;;;;5.25;4.50;;;;;9.26;77.84;101067.09;5017715;28;46057;-81
2021/10/26 06:08:06;;;;;;;;;9.00;6.00;;;;;9.20;77.30;101059.34;5035816;28;45425;-81
2021/10/26 06:10:32;;;;;;;;;6.75;5.75;;;;;9.04;78.20;101048.53;5018094;28;45187;-81
2021/10/26 06:13:03;;;;;;;;;8.00;6.00;;;;;8.95;78.23;101044.47;5036158;28;45401;-81
2021/10/26 06:15:29;;;;;;;;;5.00;5.00;;;;;9.01;78.22;101064.56;5035708;28;45259;-81
2021/10/26 06:17:54;;;;;;;;;8.00;5.00;;;;;8.98;78.39;101070.84;5035658;28;45156;-81
2021/10/26 06:20:20;;;;;;;;;6.50;5.00;;;;;8.92;78.49;101065.81;5035866;28;45087;-81
2021/10/26 06:22:45;;;;;;;;;7.00;6.00;;;;;8.93;78.54;101078.13;5035809;28;45240;-81
2021/10/26 06:25:11;;;;;;;;;6.00;5.00;;;;;8.83;78.52;101068.81;5035748;28;45423;-80
2021/10/26 06:27:37;;;;;;;;;4.00;4.00;;;;;8.90;78.62;101080.91;5036915;28;45231;-81
2021/10/26 06:30:02;;;;;;;;;4.50;3.00;;;;;8.90;79.18;101082.69;5039136;28;45152;-82
2021/10/26 06:32:28;;;;;;;;;4.50;3.00;;;;;8.84;78.99;101064.38;5038980;28;45310;-83
2021/10/26 06:34:53;;;;;;;;;7.00;5.25;;;;;8.83;78.69;101065.31;5039052;28;45275;-81
2021/10/26 06:37:20;;;;;;;;;7.25;6.00;;;;;8.93;78.99;101090.53;5038950;28;45299;-81
2021/10/26 06:39:45;;;;;;;;;5.25;3.00;;;;;8.94;78.72;101095.75;5039239;28;45158;-81
2021/10/26 06:42:10;;;;;;;;;5.00;5.00;;;;;8.94;79.41;101095.75;5020770;28;45423;-82
2021/10/26 06:44:36;;;;;;;;;5.75;4.00;;;;;8.91;79.42;101089.75;5038840;28;46277;-82
2021/10/26 06:47:01;;;;;;;;;4.50;4.50;;;;;8.77;79.42;101071.72;5037312;28;45632;-81
2021/10/26 06:49:27;;;;;;;;;6.50;5.50;;;;;8.93;79.97;101099.34;5037635;28;45228;-81
2021/10/26 06:51:53;;;;;;;;;7.00;5.00;;;;;8.91;79.96;101103.84;5037054;28;45455;-82
2021/10/26 06:54:19;;;;;;;;;5.75;4.00;;;;;9.01;80.08;101106.13;5038780;28;45925;-82
2021/10/26 06:56:44;;;;;;;;;6.00;5.00;;;;;9.05;80.13;101113.91;5038783;28;45060;-82
2021/10/26 06:59:09;;;;;;;;;4.50;4.00;;;;;9.09;80.52;101119.94;5038926;28;45156;-82
2021/10/26 07:01:35;;;;;;;;;6.00;4.33;;;;;9.14;80.06;101125.94;5036841;28;45185;-82
2021/10/26 07:04:00;;;;;;;;;6.00;6.00;;;;;9.14;80.43;101107.38;5038336;28;45646;-82
2021/10/26 07:06:26;;;;;;;;;7.00;5.50;;;;;9.30;80.51;101119.06;5038477;28;45266;-82
2021/10/26 07:08:51;;;;;;;;;6.75;6.75;;;;;9.27;80.38;101105.94;5038406;28;45778;-83
2021/10/26 07:11:17;;;;;;;;;11.75;6.50;;;;;9.36;80.75;101119.75;5020394;28;45117;-83
2021/10/26 07:13:42;;;;;;;;;13.75;10.00;;;;;9.41;80.11;101131.06;5020303;28;48178;-82
2021/10/26 07:16:08;;;;;;;;;7.00;6.00;;;;;9.46;80.66;101134.38;5038379;28;45206;-83
2021/10/26 07:18:34;;;;;;;;;9.50;7.25;;;;;9.54;80.58;101150.00;5038393;28;45234;-83
2021/10/26 07:20:59;;;;;;;;;10.25;8.00;;;;;9.56;80.67;101150.78;5038364;28;45234;-83
2021/10/26 07:23:25;;;;;;;;;11.50;7.75;;;;;9.53;80.31;101137.63;5037961;28;45167;-83
2021/10/26 07:25:51;;;;;;;;;8.50;8.00;;;;;9.59;80.88;101151.53;5020481;28;45282;-83
2021/10/26 07:28:16;;;;;;;;;10.75;9.00;;;;;9.70;80.93;101163.50;5038300;28;45183;-83
2021/10/26 07:30:44;;;;;;;;;8.00;7.50;;;;;9.78;81.04;101167.53;5038318;28;45354;-83
2021/10/26 07:33:22;;;;;;;;;17.00;14.00;;;;;9.87;80.59;101160.13;5038136;28;45302;-83
2021/10/26 07:35:50;;;;;;;;;16.00;14.75;;;;;9.98;81.12;101173.81;5038290;28;45299;-82
2021/10/26 07:38:25;;;;;;;;;13.50;11.50;;;;;10.05;80.24;101172.63;5037722;28;45241;-83
2021/10/26 07:40:50;;;;;;;;;21.00;17.50;;;;;10.09;80.64;101163.59;5037810;28;45276;-83
2021/10/26 07:43:16;;;;;;;;;15.33;11.00;;;;;10.22;80.32;101174.53;5037788;28;46543;-83
2021/10/26 07:45:42;;;;;;;;;15.00;13.00;;;;;10.21;80.44;101164.84;5038049;28;45185;-83
2021/10/26 07:48:07;;;;;;;;;10.75;10.75;;;;;10.38;80.34;101179.22;5037845;28;45236;-82
2021/10/26 07:50:32;;;;;;;;;18.00;13.75;;;;;10.44;80.03;101179.78;5038065;28;45282;-82
2021/10/26 07:52:59;;;;;;;;;16.50;13.25;;;;;10.44;79.71;101176.28;5037547;28;45242;-82
2021/10/26 07:55:24;;;;;;;;;11.25;10.50;;;;;10.59;79.81;101190.66;5037709;28;45162;-83
2021/10/26 07:57:50;;;;;;;;;10.00;9.00;;;;;10.58;79.62;101179.16;5037484;28;45270;-83
2021/10/26 08:00:15;;;;;;;;;9.50;9.50;;;;;10.71;79.38;101192.78;5037528;28;45258;-82
2021/10/26 08:02:41;;;;;;;;;12.75;10.50;;;;;10.81;79.19;101194.06;5036958;28;45307;-83
2021/10/26 08:05:07;;;;;;;;;11.00;9.50;;;;;10.96;78.68;101202.25;5037544;28;45238;-82
2021/10/26 08:07:32;;;;;;;;;9.50;9.00;;;;;11.07;78.66;101193.78;5035983;28;45431;-82
2021/10/26 08:09:58;;;;;;;;;12.25;9.50;;;;;11.10;78.28;101183.88;5037692;28;45199;-82
2021/10/26 08:12:25;;;;;;;;;11.50;11.00;;;;;11.27;78.05;101200.84;5037191;28;45758;-82
2021/10/26 08:14:51;;;;;;;;;8.50;6.00;;;;;11.26;78.17;101194.66;5037689;28;45240;-82
2021/10/26 08:17:17;;;;;;;;;9.75;7.75;;;;;11.31;77.65;101211.25;5037246;28;45296;-82
2021/10/26 08:19:45;;;;;;;;;14.25;9.50;;;;;11.34;77.62;101202.25;5037337;28;45607;-82
2021/10/26 08:22:16;;;;;;;;;15.25;13.00;;;;;11.30;78.06;101193.56;5036727;28;45891;-82
2021/10/26 08:24:44;;;;;;;;;22.25;17.25;;;;;11.46;77.87;101200.78;5037426;28;45155;-82
2021/10/26 08:27:14;;;;;;;;;10.00;8.75;;;;;11.50;77.66;101194.38;5019047;28;45305;-85
2021/10/26 08:34:53;;;;;;;;;10.00;8.00;;;;;11.59;77.02;101196.59;5036923;28;45600;-82
2021/10/26 08:37:18;;;;;;;;;7.25;7.00;;;;;11.64;77.26;101209.69;5036801;28;45282;-81
2021/10/26 08:39:44;;;;;;;;;13.75;9.00;;;;;11.66;76.76;101205.16;5037355;28;45278;-82
2021/10/26 08:42:13;;;;;;;;;9.75;7.00;;;;;11.64;76.73;101202.56;5036751;28;46207;-82
2021/10/26 08:44:40;;;;;;;;;10.00;8.00;;;;;11.71;77.21;101198.69;5018907;28;46055;-81
2021/10/26 08:47:06;;;;;;;;;8.75;7.75;;;;;11.70;77.06;101191.63;5036943;28;45211;-81
2021/10/26 08:49:33;;;;;;;;;11.50;8.50;;;;;11.74;76.90;101203.84;5034709;28;45421;-82
2021/10/26 08:51:59;;;;;;;;;9.25;6.00;;;;;11.82;77.09;101197.28;5036886;28;45921;-81
2021/10/26 08:54:25;;;;;;;;;11.50;8.00;;;;;11.95;76.83;101205.53;5037093;28;45612;-82
2021/10/26 08:56:50;;;;;;;;;6.25;2.75;;;;;11.88;76.48;101197.81;5036837;28;45300;-82
2021/10/26 08:59:17;;;;;;;;;7.50;7.50;;;;;11.93;76.55;101210.91;5018817;28;45436;-82
2021/10/26 09:01:46;;;;;;;;;7.25;6.75;;;;;11.88;76.62;101196.94;5036631;28;45517;-82
2021/10/26 09:04:12;;;;;;;;;9.25;8.00;;;;;11.86;76.42;101199.69;5036458;28;45237;-82
2021/10/26 09:07:04;;;;;;;;;11.50;6.75;;;;;11.88;76.19;101213.78;5036686;28;45353;-82
2021/10/26 09:09:32;;;;;;;;;6.75;6.00;;;;;11.84;76.54;101208.69;5037023;28;45226;-82
2021/10/26 09:17:52;;;;;;;;;8.00;7.00;;;;;11.99;75.97;101201.78;5036490;28;45294;-81
2021/10/26 09:20:28;;;;;;;;;9.00;6.00;;;;;12.05;75.98;101212.97;5018782;28;45404;-81
2021/10/26 09:22:55;;;;;;;;;10.00;8.25;;;;;12.13;75.53;101212.59;5036180;28;45180;-82
2021/10/26 09:25:38;;;;;;;;;7.25;6.25;;;;;12.22;75.76;101211.25;5036443;28;45300;-82
2021/10/26 09:28:18;;;;;;;;;9.00;6.00;;;;;12.36;75.73;101207.88;5036141;28;45203;-81
2021/10/26 09:31:01;;;;;;;;;8.50;6.50;;;;;12.54;75.90;101204.25;5036569;28;45267;-81
2021/10/26 09:33:39;;;;;;;;;9.00;7.00;;;;;12.78;74.64;101204.72;5036058;28;45545;-82
2021/10/26 09:36:30;;;;;;;;;9.00;6.00;;;;;12.92;74.43;101200.44;5018145;28;45678;-81
2021/10/26 09:39:04;;;;;;;;;9.00;6.00;;;;;13.07;73.19;101212.94;5036059;28;45297;-82
2021/10/26 09:41:36;;;;;;;;;7.50;5.25;;;;;13.09;73.53;101203.03;5036090;28;45202;-81
2021/10/26 09:44:09;;;;;;;;;8.00;7.75;;;;;13.20;72.98;101204.25;5036184;28;45624;-82
2021/10/26 09:46:35;;;;;;;;;8.75;6.75;;;;;13.28;73.41;101224.22;5036133;28;45179;-82
2021/10/26 09:49:00;;;;;;;;;8.50;8.00;;;;;13.30;72.63;101205.44;5036418;28;45262;-85
2021/10/26 09:51:26;;;;;;;;;8.00;7.00;;;;;13.35;72.81;101213.22;5036212;28;45170;-84
2021/10/26 09:53:56;;;;;;;;;7.25;5.25;;;;;13.41;72.70;101219.09;5035762;28;45298;-87
2021/10/26 09:56:22;;;;;;;;;10.25;9.25;;;;;13.50;72.57;101224.88;5036170;28;45565;-83
2021/10/26 09:58:47;;;;;;;;;10.00;7.75;;;;;13.50;72.71;101220.38;5035909;28;45281;-82
2021/10/26 10:01:13;;;;;;;;;7.00;5.00;;;;;13.61;72.20;101225.97;5036703;28;45342;-81
2021/10/26 10:03:38;;;;;;;;;7.75;7.00;;;;;13.65;71.37;101218.63;5039083;28;45627;-81
2021/10/26 10:06:05;;;;;;;;;5.25;5.00;;;;;13.62;71.81;101222.34;5037989;28;45232;-82
2021/10/26 10:08:36;;;;;;;;;5.75;4.75;;;;;13.72;71.34;101228.00;5039291;28;45285;-81
2021/10/26 10:11:07;;;;;;;;;7.50;5.00;;;;;13.78;71.63;101230.34;5039745;28;45228;-81
2021/10/26 10:13:47;;;;;;;;;6.00;4.00;;;;;13.96;71.46;101222.19;5039022;28;45246;-82
2021/10/26 10:16:14;;;;;;;;;7.00;4.75;;;;;14.33;69.91;101234.22;5021386;28;45598;-82
2021/10/26 10:18:50;;;;;;;;;6.00;5.00;;;;;14.60;70.28;101222.78;5021423;28;45235;-82
2021/10/26 10:21:20;;;;;;;;;5.75;4.50;;;;;14.70;69.35;101227.63;5039308;28;45214;-82
2021/10/26 10:23:47;;;;;;;;;4.25;4.00;;;;;14.60;68.83;101232.66;5038946;28;45548;-82
2021/10/26 10:26:24;;;;;;;;;7.75;4.25;;;;;14.52;69.47;101243.81;5039486;28;45261;-81
2021/10/26 10:28:51;;;;;;;;;5.50;4.25;;;;;14.49;69.23;101247.56;5037920;28;45208;-81
2021/10/26 10:31:20;;;;;;;;;5.50;4.75;;;;;14.42;69.52;101248.00;5039480;28;45245;-82
2021/10/26 10:33:46;;;;;;;;;4.25;2.75;;;;;14.36;69.66;101243.03;5038774;28;46093;-81
2021/10/26 10:36:14;;;;;;;;;7.50;5.75;;;;;14.40;69.89;101252.59;5039234;28;45270;-81
2021/10/26 10:38:41;;;;;;;;;8.50;8.50;;;;;14.39;69.82;101243.69;5038970;28;45339;-81
2021/10/26 10:41:27;;;;;;;;;6.50;3.25;;;;;14.48;69.93;101248.50;5039369;28;45331;-81
2021/10/26 10:43:57;;;;;;;;;8.50;4.75;;;;;14.51;69.60;101255.47;5037543;28;45971;-81
2021/10/26 10:46:43;;;;;;;;;3.50;3.50;;;;;14.47;69.38;101254.78;5020869;28;45167;-81
2021/10/26 10:49:24;;;;;;;;;4.75;4.00;;;;;14.43;69.49;101249.72;5039307;28;45253;-81
2021/10/26 10:51:54;;;;;;;;;3.75;3.75;;;;;14.40;69.84;101245.41;5038898;28;45289;-81
2021/10/26 10:57:38;;;;;;;;;4.75;2.75;;;;;14.83;67.76;101258.00;5038612;28;45535;-81
2021/10/26 11:00:05;;;;;;;;;4.50;3.50;;;;;14.83;68.28;101252.66;5036850;28;45166;-81
2021/10/26 11:02:34;;;;;;;;;5.00;4.25;;;;;14.76;68.35;101241.47;5020211;28;45230;-81
2021/10/26 11:05:00;;;;;;;;;5.25;5.00;;;;;14.83;67.52;101245.47;5039011;28;46480;-81
2021/10/26 11:07:41;;;;;;;;;5.50;5.25;;;;;14.80;68.38;101237.66;5020519;28;45715;-81
2021/10/26 11:10:07;;;;;;;;;4.25;3.00;;;;;14.95;68.74;101235.84;5038591;28;45249;-81
2021/10/26 11:12:36;;;;;;;;;2.75;2.75;;;;;15.33;66.91;101221.81;5037856;28;45194;-81
2021/10/26 11:15:06;;;;;;;;;6.00;4.50;;;;;15.97;67.36;101233.78;5038448;28;46028;-81
2021/10/26 11:17:42;;;;;;;;;3.50;2.50;;;;;16.45;65.00;101234.06;5038427;28;45606;-81
2021/10/26 11:20:26;;;;;;;;;3.25;3.00;;;;;16.82;65.07;101228.81;5038758;28;45257;-81
2021/10/26 11:23:02;;;;;;;;;7.25;4.00;;;;;17.17;62.89;101212.03;5038381;28;45282;-82
2021/10/26 11:25:28;;;;;;;;;5.50;4.00;;;;;17.39;61.08;101224.72;5038375;28;46660;-81
2021/10/26 11:27:58;;;;;;;;;5.25;3.00;;;;;17.40;61.76;101210.31;5038367;28;45209;-82
2021/10/26 11:30:29;;;;;;;;;4.75;3.00;;;;;17.38;62.00;101216.78;5038600;28;45218;-82
2021/10/26 11:33:24;;;;;;;;;4.75;3.75;;;;;17.49;62.35;101210.63;5020420;28;45217;-82
2021/10/26 11:35:51;;;;;;;;;7.25;4.25;;;;;17.60;61.91;101199.94;5020718;28;45616;-81
2021/10/26 11:38:19;;;;;;;;;2.25;2.00;;;;;17.89;61.95;101216.53;5020229;28;45905;-81
2021/10/26 11:40:57;;;;;;;;;6.00;4.00;;;;;18.17;60.81;101210.91;5020319;28;45215;-81